createdAt,value
2023-02-03T00:01:51.346Z,100185.97
2023-02-03T00:06:43.500Z,100184.94
2023-02-03T00:11:35.223Z,100178.28
2023-02-03T00:16:27.144Z,100173.53
2023-02-03T00:21:18.996Z,100157.28
2023-02-03T00:26:13.143Z,100150.81
2023-02-03T00:31:05.311Z,100150.81
2023-02-03T00:35:57.070Z,100141.06
2023-02-03T00:40:53.640Z,100148.97
2023-02-03T00:45:45.581Z,100144.78
2023-02-03T00:50:37.395Z,100155.84
2023-02-03T00:55:29.213Z,100154.63
2023-02-03T01:00:21.197Z,100155.44
2023-02-03T01:05:12.928Z,100152.75
2023-02-03T01:10:05.365Z,100163.38
2023-02-03T01:14:57.139Z,100179.59
2023-02-03T01:19:50.321Z,100173.16
2023-02-03T01:24:41.905Z,100180.47
2023-02-03T01:29:33.570Z,100182.97
2023-02-03T01:34:25.543Z,100198.16
2023-02-03T01:39:17.337Z,100186.94
2023-02-03T01:44:42.384Z,100183.59
2023-02-03T01:49:36.777Z,100197.13
2023-02-03T01:54:35.259Z,100198.63
2023-02-03T01:59:28.705Z,100182.19
2023-02-03T02:04:22.379Z,100180.31
2023-02-03T02:09:16.002Z,100190.94
2023-02-03T02:14:08.192Z,100187.19
2023-02-03T02:19:18.307Z,100177.19
2023-02-03T02:24:37.645Z,100175.31
2023-02-03T02:29:29.262Z,100163.66
2023-02-03T02:34:39.063Z,100160.75
2023-02-03T02:39:56.722Z,100159.94
2023-02-03T02:44:55.383Z,100166.19
2023-02-03T02:50:05.262Z,100166.19
2023-02-03T02:55:03.185Z,100169.91
2023-02-03T02:59:54.981Z,100173.00
2023-02-03T03:04:49.899Z,100180.09
2023-02-03T03:10:01.149Z,100195.72
2023-02-03T03:14:58.887Z,100212.16
2023-02-03T03:19:57.751Z,100214.00
2023-02-03T03:25:09.335Z,100221.50
2023-02-03T03:30:06.582Z,100229.63
2023-02-03T03:34:59.040Z,100232.31
2023-02-03T03:39:56.708Z,100235.66
2023-02-03T03:44:58.133Z,100237.97
2023-02-03T03:49:51.713Z,100241.53
2023-02-03T03:54:45.236Z,100254.00
2023-02-03T03:59:41.561Z,100250.47
2023-02-03T04:04:36.789Z,100260.28
2023-02-03T04:09:29.665Z,100259.63
2023-02-03T04:14:21.368Z,100272.53
2023-02-03T04:19:13.080Z,100272.53
2023-02-03T04:24:05.063Z,100269.00
2023-02-03T04:28:56.874Z,100278.78
2023-02-03T04:33:48.463Z,100266.28
2023-02-03T04:38:40.143Z,100287.09
2023-02-03T04:43:31.806Z,100280.00
2023-02-03T04:48:23.414Z,100298.78
2023-02-03T04:53:16.031Z,100303.13
2023-02-03T04:58:09.070Z,100316.47
2023-02-03T05:03:00.916Z,100324.19
2023-02-03T05:07:52.662Z,100324.19
2023-02-03T05:12:44.372Z,100321.31
2023-02-03T05:17:40.219Z,100325.06
2023-02-03T05:22:32.344Z,100334.00
2023-02-03T05:27:24.006Z,100334.84
2023-02-03T05:32:15.798Z,100346.91
2023-02-03T05:37:07.466Z,100327.09
2023-02-03T05:41:59.268Z,100344.41
2023-02-03T05:46:53.441Z,100347.94
2023-02-03T05:51:45.349Z,100354.38
2023-02-03T05:56:37.051Z,100347.28
2023-02-03T06:01:28.981Z,100352.91
2023-02-03T06:06:20.708Z,100351.84
2023-02-03T06:11:12.593Z,100363.53
2023-02-03T06:16:04.727Z,100371.47
2023-02-03T06:20:56.438Z,100370.59
2023-02-03T06:25:49.457Z,100375.38
2023-02-03T06:30:41.351Z,100377.91
2023-02-03T06:35:33.253Z,100383.13
2023-02-03T06:40:25.213Z,100387.50
2023-02-03T06:45:17.805Z,100405.88
2023-02-03T06:50:12.181Z,100407.09
2023-02-03T06:55:05.486Z,100414.84
2023-02-03T06:59:57.158Z,100405.88
2023-02-03T07:04:48.829Z,100403.19
2023-02-03T07:09:40.906Z,100409.41
2023-02-03T07:14:34.240Z,100427.34
2023-02-03T07:19:26.022Z,100422.75
2023-02-03T07:24:17.764Z,100449.47
2023-02-03T07:29:09.494Z,100446.56
2023-02-03T07:34:01.479Z,100469.03
2023-02-03T07:38:53.204Z,100465.13
2023-02-03T07:43:44.932Z,100471.19
2023-02-03T07:48:36.664Z,100472.88
2023-02-03T07:53:28.467Z,100467.44
2023-02-03T07:58:20.214Z,100471.84
2023-02-03T08:03:11.982Z,100483.69
2023-02-03T08:08:03.813Z,100486.22
2023-02-03T08:12:56.097Z,100498.72
2023-02-03T08:17:49.828Z,100503.09
2023-02-03T08:22:41.704Z,100515.81
2023-02-03T08:27:33.415Z,100515.81
2023-02-03T08:32:25.280Z,100523.94
2023-02-03T08:37:19.979Z,100535.59
2023-02-03T08:42:12.025Z,100541.19
2023-02-03T08:47:04.356Z,100547.47
2023-02-03T08:51:56.988Z,100542.06
2023-02-03T08:56:48.765Z,100555.41
2023-02-03T09:01:40.902Z,100573.69
2023-02-03T09:06:32.777Z,100571.47
2023-02-03T09:11:24.545Z,100570.41
2023-02-03T09:16:18.841Z,100567.13
2023-02-03T09:21:15.943Z,100571.16
2023-02-03T09:26:16.160Z,100578.91
2023-02-03T09:31:10.518Z,100577.69
2023-02-03T09:36:02.785Z,100576.44
2023-02-03T09:41:15.739Z,100576.56
2023-02-03T09:46:16.308Z,100584.09
2023-02-03T09:51:20.093Z,100586.88
2023-02-03T09:56:31.766Z,100582.19
2023-02-03T10:01:29.432Z,100594.38
2023-02-03T10:06:36.188Z,100589.47
2023-02-03T10:11:40.067Z,100580.16
2023-02-03T10:16:53.234Z,100580.28
2023-02-03T10:21:52.549Z,100581.34
2023-02-03T10:26:44.381Z,100589.09
2023-02-03T10:31:38.003Z,100591.88
2023-02-03T10:36:58.260Z,100599.88
2023-02-03T10:41:50.043Z,100602.44
2023-02-03T10:46:45.464Z,100610.44
2023-02-03T10:51:54.759Z,100620.09
2023-02-03T10:56:46.586Z,100618.09
2023-02-03T11:01:44.740Z,100626.53
2023-02-03T11:06:52.049Z,100626.41
2023-02-03T11:11:43.754Z,100601.84
2023-02-03T11:16:38.521Z,100606.69
2023-02-03T11:21:44.072Z,100598.63
2023-02-03T11:26:45.515Z,100607.25
2023-02-03T11:31:37.916Z,100610.66
2023-02-03T11:36:32.613Z,100613.00
2023-02-03T11:41:24.270Z,100620.78
2023-02-03T11:46:16.303Z,100614.53
2023-02-03T11:51:35.941Z,100641.75
2023-02-03T11:56:35.361Z,100634.47
2023-02-03T12:01:48.646Z,100651.00
2023-02-03T12:06:55.511Z,100647.66
2023-02-03T12:11:53.159Z,100660.19
2023-02-03T12:16:44.887Z,100665.38
2023-02-03T12:21:56.711Z,100671.41
2023-02-03T12:27:06.658Z,100674.78
2023-02-03T12:32:30.573Z,100683.94
2023-02-03T12:37:28.496Z,100694.44
2023-02-03T12:42:32.057Z,100689.44
2023-02-03T12:47:32.264Z,100684.69
2023-02-03T12:52:54.308Z,100688.28
2023-02-03T12:58:03.569Z,100688.25
2023-02-03T13:03:20.004Z,100682.41
2023-02-03T13:08:28.652Z,100688.28
2023-02-03T13:13:29.507Z,100685.78
2023-02-03T13:18:33.655Z,100698.13
2023-02-03T13:23:25.801Z,100696.66
2023-02-03T13:28:29.216Z,100693.09
2023-02-03T13:33:44.769Z,100690.16
2023-02-03T13:38:55.413Z,100686.59
2023-02-03T13:43:51.439Z,100694.94
2023-02-03T13:48:45.916Z,100705.00
2023-02-03T13:53:40.562Z,100704.75
2023-02-03T13:58:38.166Z,100702.66
2023-02-03T14:03:29.954Z,100704.56
2023-02-03T14:08:27.669Z,100697.22
2023-02-03T14:13:20.966Z,100690.94
2023-02-03T14:18:46.204Z,100695.53
2023-02-03T14:23:45.934Z,100710.81
2023-02-03T14:28:41.969Z,100708.03
2023-02-03T14:33:48.940Z,100712.63
2023-02-03T14:38:41.446Z,100707.81
2023-02-03T14:43:49.582Z,100714.47
2023-02-03T14:48:54.973Z,100707.97
2023-02-03T14:54:13.242Z,100711.91
2023-02-03T14:59:10.562Z,100717.47
2023-02-03T15:04:11.131Z,100743.59
2023-02-03T15:09:19.795Z,100740.44
2023-02-03T15:14:21.094Z,100747.69
2023-02-03T15:19:22.592Z,100749.56
2023-02-03T15:24:18.651Z,100746.97
2023-02-03T15:29:22.095Z,100758.63
2023-02-03T15:34:41.431Z,100763.59
2023-02-03T15:39:53.527Z,100769.53
2023-02-03T15:44:57.619Z,100760.91
2023-02-03T15:50:00.923Z,100774.41
2023-02-03T15:55:04.052Z,100776.88
2023-02-03T16:00:01.831Z,100781.00
2023-02-03T16:04:54.272Z,100786.44
2023-02-03T16:09:46.057Z,100796.06
2023-02-03T16:14:37.812Z,100796.47
2023-02-03T16:19:38.483Z,100809.00
2023-02-03T16:24:33.138Z,100817.16
2023-02-03T16:29:47.786Z,100816.47
2023-02-03T16:34:57.977Z,100820.44
2023-02-03T16:40:08.478Z,100827.28
2023-02-03T16:45:19.024Z,100826.66
2023-02-03T16:50:41.740Z,100840.13
2023-02-03T16:55:34.453Z,100838.38
2023-02-03T17:00:26.193Z,100831.19
2023-02-03T17:05:18.047Z,100842.16
2023-02-03T17:10:10.245Z,100833.75
2023-02-03T17:15:01.971Z,100848.91
2023-02-03T17:19:53.674Z,100848.38
2023-02-03T17:24:45.621Z,100840.44
2023-02-03T17:29:37.939Z,100843.31
2023-02-03T17:34:29.605Z,100858.25
2023-02-03T17:54:49.219Z,100869.47
2023-02-03T17:59:40.912Z,100865.09
2023-02-03T18:04:32.698Z,100883.19
2023-02-03T18:09:24.606Z,100886.47
2023-02-03T18:14:16.815Z,100886.00
2023-02-03T18:19:12.899Z,100885.16
2023-02-03T18:24:05.991Z,100897.84
2023-02-03T18:28:57.669Z,100897.84
2023-02-03T18:33:49.418Z,100902.63
2023-02-03T18:38:43.295Z,100894.50
2023-02-03T18:43:35.578Z,100902.00
2023-02-03T18:48:27.198Z,100896.56
2023-02-03T18:53:18.934Z,100899.28
2023-02-03T18:58:12.657Z,100894.88
2023-02-03T19:03:04.533Z,100902.16
2023-02-03T19:07:56.469Z,100910.31
2023-02-03T19:12:48.182Z,100907.59
2023-02-03T19:17:40.056Z,100914.03
2023-02-03T19:22:32.770Z,100923.00
2023-02-03T19:27:25.087Z,100926.38
2023-02-03T19:32:16.912Z,100923.50
2023-02-03T19:37:08.832Z,100920.97
2023-02-03T19:42:00.855Z,100928.22
2023-02-03T19:46:52.635Z,100915.72
2023-02-03T19:51:45.024Z,100926.25
2023-02-03T19:56:37.005Z,100928.31
2023-02-03T20:01:29.476Z,100931.22
2023-02-03T20:06:21.265Z,100936.34
2023-02-03T20:11:13.670Z,100942.78
2023-02-03T20:16:05.717Z,100942.13
2023-02-03T20:20:57.538Z,100940.78
2023-02-03T20:25:50.538Z,100937.63
2023-02-03T20:30:42.321Z,100933.56
2023-02-03T20:35:34.094Z,100934.59
2023-02-03T20:40:27.811Z,100947.31
2023-02-03T20:45:22.389Z,100950.38
2023-02-03T20:50:18.373Z,100948.03
2023-02-03T20:55:15.792Z,100949.22
2023-02-03T21:00:22.916Z,100951.09
2023-02-03T21:05:26.003Z,100954.81
2023-02-03T21:10:21.092Z,100955.00
2023-02-03T21:15:28.268Z,100962.66
2023-02-03T21:20:29.555Z,100955.53
2023-02-03T21:25:33.413Z,100959.94
2023-02-03T21:30:30.579Z,100962.00
2023-02-03T21:35:32.179Z,100969.44
2023-02-03T21:40:30.084Z,100964.56
2023-02-03T21:45:24.264Z,100967.25
2023-02-03T21:50:35.054Z,100963.06
2023-02-03T21:55:26.769Z,100967.97
2023-02-03T22:00:43.464Z,100971.56
2023-02-03T22:05:38.282Z,100973.41
2023-02-03T22:10:30.307Z,100978.81
2023-02-03T22:15:22.519Z,100976.97
2023-02-03T22:20:14.287Z,100979.00
2023-02-03T22:25:06.503Z,100984.59
2023-02-03T22:29:58.265Z,100984.59
2023-02-03T22:34:49.921Z,100987.97
2023-02-03T22:39:41.729Z,100998.13
2023-02-03T22:44:33.397Z,100995.78
2023-02-03T22:49:25.204Z,101001.19
2023-02-03T22:54:16.916Z,101003.41
2023-02-03T22:59:08.573Z,101015.06
2023-02-03T23:04:00.467Z,101029.47
2023-02-03T23:08:53.067Z,101039.63
2023-02-03T23:13:44.847Z,101041.66
2023-02-03T23:18:36.645Z,101042.31
2023-02-03T23:23:28.446Z,101050.28
2023-02-03T23:28:20.168Z,101054.03
2023-02-03T23:33:12.049Z,101054.19
2023-02-03T23:38:03.864Z,101053.50
2023-02-03T23:42:55.960Z,101055.25
2023-02-03T23:47:48.116Z,101059.78
2023-02-03T23:52:39.877Z,101068.09
2023-02-03T23:57:31.675Z,101071.16
